Sherman, TX (75090)

5:41 AM CDT on July 27, 2016 (GMT -0500)
Starlight | | Change Station

Elev 807 ft 33.66 °N, 96.60 °W | Updated 6 minutes ago

Overcast
Overcast
73.9 °F
Feels Like 72 °F
N
0.0
Wind Variable Wind from South

Today
High -- | Low -- °F
--% Chance of Precip.
Yesterday
High -- | Low -- °F
Precip. -- in
Pressure 29.96 in
Visibility 5.0 miles
Clouds Scattered Clouds 6500 ft
Overcast 8500 ft
Heat Index 72 °F
Dew Point 71 °F
Humidity 92%
Rainfall 0.00 in
Snow Depth Not available.
6:35 AM 8:30 PM
Last Quarter, 44% visible
METAR KGYI 271035Z AUTO 00000KT 5SM BR SCT065 OVC085 24/24 A2996 RMK AO2 T02440244
Pressure 29.96 in
Visibility 5.0 miles
Clouds Scattered Clouds 6500 ft
Overcast 8500 ft
Heat Index 72 °F
Dew Point 71 °F
Humidity 92%
Rainfall 0.00 in
Snow Depth Not available.
6:35 AM 8:30 PM
Last Quarter, 44% visible
METAR KGYI 271035Z AUTO 00000KT 5SM BR SCT065 OVC085 24/24 A2996 RMK AO2 T02440244

10-Day Weather Forecast

Almanac

Astronomy

Jul. 27, 2016 Rise Set
Actual Time
Civil Twilight
Nautical Twilight
Astronomical Twilight
Moon
Length of Visible Light
Length of Day
Tomorrow will be .
, % of the Moon is Illuminated

Today's Extremes

State Highs State Lows

Community

WunderPhotos

Upload Photos

1,927,825 photos uploaded!

WunderBlog® & News

Nearby

Air Quality

  Air Quality AQ Index Pollutant
Not available.

Snow Depth

Station Depth Elevation

Earthquake Activity

City Distance Mag. Time & Date
Minimum magnitude displayed is 2.5.

Coastal Water Temperatures

Place Temperature

Stations

Nearby Weather Stations

Station Location Temp. Windchill Dew Point Humidity Wind Precip. Elev Updated Type
                   

Watches & Warnings

There are currently no watches in effect.